PSN weather

Palestine Municipal Airport
Palestine, Texas, United States

Public forecast

Using degrees Fahrenheit for public forecast. Weather courtesy of forecast.io.

METAR (pilot weather report)

Retrieved 2019/03/26 10:15 UTC (0 seconds ago):

KPSN 261015Z AUTO 01004KT 10SM CLR 09/07 A3028 RMK AO2 T00950075

TAF (pilot weather forecast)

Closest forecast is Tyler Pounds Regional Airport, 37.8 nm (70.0 km) NNE. Retrieved 2019/03/26 06:30 UTC (4 hours ago):

TAF KTYR 260526Z 2606/2706 35004KT P6SM SKC FM261500 05008KT P6SM SCT025 FM261800 02009KT P6SM SKC FM270000 06004KT P6SM SKC